createdAt,value
2022-10-13T00:00:47.786Z,100608.59
2022-10-13T00:03:15.782Z,100612.09
2022-10-13T00:05:47.668Z,100610.22
2022-10-13T00:08:19.062Z,100616.34
2022-10-13T00:10:47.438Z,100607.53
2022-10-13T00:13:15.061Z,100600.03
2022-10-13T00:15:43.714Z,100608.34
2022-10-13T00:18:11.063Z,100607.75
2022-10-13T00:20:43.154Z,100602.87
2022-10-13T00:23:10.632Z,100609.75
2022-10-13T00:25:44.612Z,100606.34
2022-10-13T00:28:12.349Z,100604.16
2022-10-13T00:30:39.933Z,100605.94
2022-10-13T00:33:07.335Z,100606.47
2022-10-13T00:35:35.105Z,100610.75
2022-10-13T00:38:02.449Z,100611.38
2022-10-13T00:40:31.359Z,100608.38
2022-10-13T00:42:59.174Z,100603.94
2022-10-13T00:45:27.494Z,100602.87
2022-10-13T00:47:59.020Z,100599.16
2022-10-13T00:50:32.829Z,100604.03
2022-10-13T00:53:02.916Z,100605.00
2022-10-13T00:55:31.541Z,100602.84
2022-10-13T00:58:05.157Z,100604.31
2022-10-13T01:00:33.966Z,100601.97
2022-10-13T01:03:02.099Z,100597.13
2022-10-13T01:05:29.787Z,100598.72
2022-10-13T01:07:57.594Z,100598.56
2022-10-13T01:10:42.341Z,100593.41
2022-10-13T01:13:31.286Z,100596.63
2022-10-13T01:16:18.480Z,100597.44
2022-10-13T01:19:05.393Z,100599.22
2022-10-13T01:21:47.676Z,100605.94
2022-10-13T01:24:34.453Z,100606.69
2022-10-13T01:27:24.649Z,100605.56
2022-10-13T01:30:07.129Z,100598.91
2022-10-13T01:32:38.445Z,100599.72
2022-10-13T01:35:08.548Z,100599.22
2022-10-13T01:38:11.883Z,100604.06
2022-10-13T01:41:13.743Z,100594.56
2022-10-13T01:44:16.068Z,100587.25
2022-10-13T01:46:44.431Z,100584.56
2022-10-13T01:49:12.774Z,100588.06
2022-10-13T01:51:40.245Z,100589.91
2022-10-13T01:54:08.217Z,100582.38
2022-10-13T01:56:35.543Z,100578.41
2022-10-13T01:59:07.345Z,100579.72
2022-10-13T02:01:49.706Z,100581.75
2022-10-13T02:04:23.548Z,100569.69
2022-10-13T02:06:58.202Z,100572.03
2022-10-13T02:09:47.549Z,100577.06
2022-10-13T02:12:27.788Z,100577.56
2022-10-13T02:14:55.805Z,100582.06
2022-10-13T02:17:23.203Z,100580.38
2022-10-13T02:19:50.511Z,100581.38
2022-10-13T02:22:18.325Z,100584.34
2022-10-13T02:24:45.970Z,100582.03
2022-10-13T02:27:13.300Z,100587.06
2022-10-13T02:29:51.574Z,100583.75
2022-10-13T02:32:20.094Z,100581.00
2022-10-13T02:34:48.110Z,100577.19
2022-10-13T02:37:15.465Z,100575.69
2022-10-13T02:39:42.897Z,100577.91
2022-10-13T02:42:12.049Z,100577.06
2022-10-13T02:44:40.180Z,100577.06
2022-10-13T02:47:07.524Z,100578.56
2022-10-13T02:49:35.100Z,100580.72
2022-10-13T02:52:02.477Z,100574.41
2022-10-13T02:54:29.802Z,100574.22
2022-10-13T02:56:57.358Z,100573.69
2022-10-13T02:59:24.688Z,100578.88
2022-10-13T03:01:52.009Z,100577.03
2022-10-13T03:04:19.605Z,100577.31
2022-10-13T03:06:46.955Z,100579.34
2022-10-13T03:09:14.281Z,100576.56
2022-10-13T03:11:44.126Z,100584.72
2022-10-13T03:14:11.512Z,100570.53
2022-10-13T03:16:38.841Z,100578.06
2022-10-13T03:19:10.856Z,100573.75
2022-10-13T03:21:39.625Z,100578.72
2022-10-13T03:24:07.251Z,100574.06
2022-10-13T03:26:35.184Z,100578.53
2022-10-13T03:29:02.502Z,100585.72
2022-10-13T03:31:30.237Z,100574.03
2022-10-13T03:34:02.315Z,100572.37
2022-10-13T03:36:30.057Z,100572.87
2022-10-13T03:38:57.383Z,100570.03
2022-10-13T03:41:24.701Z,100569.69
2022-10-13T03:43:52.300Z,100575.38
2022-10-13T03:46:19.629Z,100567.72
2022-10-13T03:48:47.438Z,100566.72
2022-10-13T03:51:18.896Z,100569.37
2022-10-13T03:53:47.210Z,100565.03
2022-10-13T03:56:17.538Z,100563.06
2022-10-13T03:58:53.776Z,100556.53
2022-10-13T04:01:22.513Z,100562.41
2022-10-13T04:03:50.635Z,100562.06
2022-10-13T04:06:17.937Z,100564.88
2022-10-13T04:08:45.264Z,100558.87
2022-10-13T04:11:14.153Z,100566.72
2022-10-13T04:13:41.842Z,100552.03
2022-10-13T04:16:14.093Z,100553.53
2022-10-13T04:18:44.656Z,100557.19
2022-10-13T04:21:14.001Z,100558.38
2022-10-13T04:23:41.734Z,100556.72
2022-10-13T04:26:15.046Z,100558.22
2022-10-13T04:28:42.779Z,100553.03
2022-10-13T04:31:10.193Z,100552.37
2022-10-13T04:33:37.538Z,100557.69
2022-10-13T04:36:06.228Z,100553.41
2022-10-13T04:38:33.705Z,100554.38
2022-10-13T04:41:04.588Z,100561.41
2022-10-13T04:43:32.564Z,100560.06
2022-10-13T04:46:06.404Z,100554.72
2022-10-13T04:48:34.241Z,100556.38
2022-10-13T04:51:09.367Z,100561.06
2022-10-13T04:53:37.069Z,100558.72
2022-10-13T04:56:08.538Z,100559.88
2022-10-13T04:58:36.959Z,100559.06
2022-10-13T05:01:05.355Z,100561.22
2022-10-13T05:03:33.344Z,100563.91
2022-10-13T05:06:00.763Z,100555.22
2022-10-13T05:08:28.372Z,100564.72
2022-10-13T05:11:01.919Z,100562.37
2022-10-13T05:13:29.695Z,100559.37
2022-10-13T05:15:57.918Z,100560.38
2022-10-13T05:18:25.427Z,100558.53
2022-10-13T05:20:53.039Z,100568.16
2022-10-13T05:23:20.361Z,100561.38
2022-10-13T05:25:47.804Z,100558.34
2022-10-13T05:28:18.405Z,100557.72
2022-10-13T05:30:45.916Z,100552.41
2022-10-13T05:33:13.295Z,100560.38
2022-10-13T05:35:41.006Z,100556.53
2022-10-13T05:38:08.362Z,100561.72
2022-10-13T05:40:35.837Z,100562.53
2022-10-13T05:43:03.917Z,100560.72
2022-10-13T05:45:35.560Z,100571.03
2022-10-13T05:48:03.473Z,100566.03
2022-10-13T05:50:31.028Z,100568.72
2022-10-13T05:52:58.367Z,100571.72
2022-10-13T05:55:26.030Z,100573.53
2022-10-13T05:57:53.323Z,100571.41
2022-10-13T06:00:21.267Z,100583.28
2022-10-13T06:02:52.724Z,100587.56
2022-10-13T06:05:20.557Z,100600.72
2022-10-13T06:07:50.327Z,100585.59
2022-10-13T06:10:18.788Z,100589.84
2022-10-13T06:12:46.116Z,100587.06
2022-10-13T06:15:13.434Z,100586.91
2022-10-13T06:17:41.234Z,100583.03
2022-10-13T06:20:09.079Z,100589.72
2022-10-13T06:22:36.686Z,100585.38
2022-10-13T06:25:05.572Z,100592.69
2022-10-13T06:27:32.914Z,100590.13
2022-10-13T06:30:00.456Z,100594.53
2022-10-13T06:32:28.090Z,100585.19
2022-10-13T06:34:55.430Z,100587.19
2022-10-13T06:37:27.071Z,100584.47
2022-10-13T06:39:55.020Z,100589.28
2022-10-13T06:42:22.923Z,100591.03
2022-10-13T06:44:51.744Z,100585.06
2022-10-13T06:47:19.324Z,100585.25
2022-10-13T06:49:46.880Z,100593.59
2022-10-13T06:52:14.747Z,100591.16
2022-10-13T06:54:43.602Z,100581.47
2022-10-13T06:57:12.402Z,100588.91
2022-10-13T06:59:39.730Z,100581.44
2022-10-13T07:02:07.348Z,100578.31
2022-10-13T07:04:34.689Z,100574.91
2022-10-13T07:07:02.038Z,100573.69
2022-10-13T07:09:29.906Z,100571.06
2022-10-13T07:11:57.269Z,100570.53
2022-10-13T07:14:24.930Z,100578.47
2022-10-13T07:16:52.799Z,100571.94
2022-10-13T07:19:20.178Z,100574.19
2022-10-13T07:21:47.580Z,100573.44
2022-10-13T07:24:15.205Z,100568.63
2022-10-13T07:26:42.560Z,100563.06
2022-10-13T07:29:10.004Z,100572.22
2022-10-13T07:31:37.597Z,100567.66
2022-10-13T07:34:05.568Z,100565.47
2022-10-13T07:36:33.210Z,100565.75
2022-10-13T07:39:01.268Z,100559.72
2022-10-13T07:41:28.570Z,100561.28
2022-10-13T07:43:56.594Z,100567.97
2022-10-13T07:46:24.385Z,100570.66
2022-10-13T07:48:54.525Z,100561.50
2022-10-13T07:51:22.438Z,100569.28
2022-10-13T07:53:50.374Z,100574.09
2022-10-13T07:56:17.739Z,100572.91
2022-10-13T07:58:46.174Z,100575.22
2022-10-13T08:01:14.382Z,100566.97
2022-10-13T08:03:45.623Z,100561.09
2022-10-13T08:06:16.934Z,100563.75
2022-10-13T08:08:44.557Z,100565.38
2022-10-13T08:11:16.461Z,100558.00
2022-10-13T08:13:51.141Z,100556.53
2022-10-13T08:16:20.985Z,100551.25
2022-10-13T08:18:48.685Z,100550.88
2022-10-13T08:21:52.840Z,100546.88
2022-10-13T08:24:06.517Z,100547.06
2022-10-13T08:26:33.845Z,100548.94
2022-10-13T08:34:17.071Z,100535.31
2022-10-13T08:36:44.575Z,100529.19
2022-10-13T08:39:12.945Z,100538.28
2022-10-13T08:41:41.564Z,100535.84
2022-10-13T08:45:10.518Z,100528.94
2022-10-13T08:47:24.609Z,100527.28
2022-10-13T08:49:55.375Z,100529.75
2022-10-13T08:52:27.731Z,100527.81
2022-10-13T08:54:55.599Z,100517.03
2022-10-13T08:57:24.634Z,100524.84
2022-10-13T08:59:52.611Z,100509.88
2022-10-13T09:02:26.503Z,100518.34
2022-10-13T09:04:54.211Z,100517.88
2022-10-13T09:07:27.210Z,100509.94
2022-10-13T09:09:55.473Z,100511.03
2022-10-13T09:12:25.149Z,100510.66
2022-10-13T09:15:03.358Z,100515.66
2022-10-13T09:17:31.209Z,100516.03
2022-10-13T09:20:02.386Z,100513.94
2022-10-13T09:22:39.565Z,100515.66
2022-10-13T09:25:07.068Z,100511.69
2022-10-13T09:27:49.282Z,100516.38
2022-10-13T09:30:28.473Z,100503.44
2022-10-13T09:33:13.678Z,100500.38
2022-10-13T09:36:11.027Z,100503.91
2022-10-13T09:38:39.270Z,100501.72
2022-10-13T09:41:13.668Z,100504.00
2022-10-13T09:43:47.826Z,100503.91
2022-10-13T09:46:21.805Z,100500.50
2022-10-13T09:48:52.818Z,100490.75
2022-10-13T09:51:34.992Z,100487.06
2022-10-13T09:54:35.661Z,100489.91
2022-10-13T09:57:40.164Z,100489.50
2022-10-13T10:00:17.083Z,100492.88
2022-10-13T10:03:03.002Z,100478.75
2022-10-13T10:05:52.270Z,100484.44
2022-10-13T10:09:01.580Z,100482.34
2022-10-13T10:11:33.573Z,100482.47
2022-10-13T10:14:10.344Z,100475.06
2022-10-13T10:16:41.823Z,100477.28
2022-10-13T10:19:47.795Z,100472.62
2022-10-13T10:22:48.824Z,100474.22
2022-10-13T10:25:38.727Z,100469.75
2022-10-13T10:28:32.704Z,100462.59
2022-10-13T10:31:09.374Z,100466.91
2022-10-13T10:33:49.321Z,100470.06
2022-10-13T10:36:27.100Z,100464.47
2022-10-13T10:38:56.356Z,100463.00
2022-10-13T10:41:48.663Z,100458.88
2022-10-13T10:44:17.475Z,100460.47
2022-10-13T10:46:49.048Z,100458.94
2022-10-13T10:49:34.994Z,100453.03
2022-10-13T10:52:06.037Z,100443.09
2022-10-13T10:55:20.634Z,100435.69
2022-10-13T10:58:05.260Z,100447.72
2022-10-13T11:00:37.563Z,100435.62
2022-10-13T11:03:26.139Z,100436.13
2022-10-13T11:06:26.421Z,100428.34
2022-10-13T11:08:55.388Z,100428.22
2022-10-13T11:11:25.113Z,100421.81
2022-10-13T11:13:59.411Z,100419.53
2022-10-13T11:16:31.842Z,100415.00
2022-10-13T11:19:05.834Z,100408.75
2022-10-13T11:21:55.226Z,100410.59
2022-10-13T11:24:49.877Z,100402.91
2022-10-13T11:27:19.864Z,100403.47
2022-10-13T11:29:48.853Z,100403.56
2022-10-13T11:32:30.419Z,100391.41
2022-10-13T11:34:57.828Z,100394.56
2022-10-13T11:37:29.410Z,100392.06
2022-10-13T11:40:32.590Z,100388.59
2022-10-13T11:43:31.369Z,100390.50
2022-10-13T11:46:22.110Z,100383.91
2022-10-13T11:49:06.064Z,100380.97
2022-10-13T11:51:57.116Z,100370.19
2022-10-13T11:54:40.965Z,100372.53
2022-10-13T11:57:21.175Z,100363.03
2022-10-13T11:59:49.936Z,100368.91
2022-10-13T12:02:23.683Z,100363.94
2022-10-13T12:05:08.823Z,100354.94
2022-10-13T12:07:39.482Z,100349.75
2022-10-13T12:10:08.257Z,100358.19
2022-10-13T12:12:35.714Z,100344.38
2022-10-13T12:15:26.301Z,100348.53
2022-10-13T12:17:53.909Z,100346.63
2022-10-13T12:20:23.504Z,100349.13
2022-10-13T12:22:51.316Z,100350.13
2022-10-13T12:25:20.339Z,100335.50
2022-10-13T12:27:51.366Z,100340.38
2022-10-13T12:30:26.033Z,100337.16
2022-10-13T12:32:55.477Z,100340.47
2022-10-13T12:35:25.421Z,100330.06
2022-10-13T12:37:53.197Z,100328.03
2022-10-13T12:40:20.815Z,100325.88
2022-10-13T12:42:48.823Z,100315.47
2022-10-13T12:45:20.236Z,100317.12
2022-10-13T12:47:50.137Z,100312.09
2022-10-13T12:50:27.471Z,100311.25
2022-10-13T12:53:13.827Z,100309.62
2022-10-13T12:56:10.286Z,100310.56
2022-10-13T12:58:39.153Z,100310.44
2022-10-13T13:01:12.507Z,100316.09
2022-10-13T13:03:40.864Z,100309.72
2022-10-13T13:06:10.294Z,100302.41
2022-10-13T13:08:39.778Z,100309.50
2022-10-13T13:11:19.890Z,100300.72
2022-10-13T13:13:48.053Z,100296.19
2022-10-13T13:16:20.268Z,100307.06
2022-10-13T13:18:48.491Z,100302.81
2022-10-13T13:21:19.132Z,100297.66
2022-10-13T13:23:51.223Z,100290.50
2022-10-13T13:26:22.749Z,100291.87
2022-10-13T13:28:54.643Z,100280.91
2022-10-13T13:31:23.533Z,100289.16
2022-10-13T13:33:51.013Z,100281.56
2022-10-13T13:36:23.347Z,100279.44
2022-10-13T13:38:53.012Z,100284.06
2022-10-13T13:41:20.382Z,100276.88
2022-10-13T13:43:48.063Z,100275.59
2022-10-13T13:46:25.665Z,100274.66
2022-10-13T13:48:53.126Z,100275.22
2022-10-13T13:51:21.050Z,100271.94
2022-10-13T13:53:48.476Z,100276.22
2022-10-13T13:56:19.244Z,100271.44
2022-10-13T13:58:46.880Z,100272.19
2022-10-13T14:01:14.396Z,100276.00
2022-10-13T14:03:42.081Z,100275.38
2022-10-13T14:06:19.335Z,100263.81
2022-10-13T14:08:46.945Z,100266.12
2022-10-13T14:11:14.318Z,100268.00
2022-10-13T14:13:41.756Z,100268.69
2022-10-13T14:16:09.516Z,100265.00
2022-10-13T14:18:36.812Z,100260.09
2022-10-13T14:21:07.641Z,100261.63
2022-10-13T14:23:35.563Z,100270.53
2022-10-13T14:26:07.946Z,100260.97
2022-10-13T14:28:35.563Z,100262.22
2022-10-13T14:31:06.644Z,100258.94
2022-10-13T14:33:35.609Z,100249.50
2022-10-13T14:36:04.761Z,100253.53
2022-10-13T14:38:32.696Z,100248.62
2022-10-13T14:41:04.906Z,100252.75
2022-10-13T14:43:32.919Z,100258.97
2022-10-13T14:46:04.222Z,100253.81
2022-10-13T14:48:32.668Z,100262.75
2022-10-13T14:51:00.181Z,100255.44
2022-10-13T14:53:28.372Z,100256.25
2022-10-13T14:55:55.974Z,100255.78
2022-10-13T14:58:23.351Z,100251.66
2022-10-13T15:00:51.938Z,100252.47
2022-10-13T15:03:19.602Z,100240.37
2022-10-13T15:05:46.976Z,100253.87
2022-10-13T15:08:18.091Z,100250.34
2022-10-13T15:10:45.762Z,100257.19
2022-10-13T15:13:13.080Z,100251.38
2022-10-13T15:15:46.676Z,100254.72
2022-10-13T15:18:14.262Z,100254.34
2022-10-13T15:20:46.381Z,100254.13
2022-10-13T15:23:14.551Z,100254.97
2022-10-13T15:25:56.409Z,100259.34
2022-10-13T15:28:24.658Z,100255.41
2022-10-13T15:30:52.062Z,100263.91
2022-10-13T15:33:21.918Z,100254.81
2022-10-13T15:35:50.269Z,100250.91
2022-10-13T15:38:17.990Z,100248.19
2022-10-13T15:40:45.688Z,100249.84
2022-10-13T15:43:13.300Z,100248.84
2022-10-13T15:45:40.642Z,100260.22
2022-10-13T15:48:08.676Z,100258.97
2022-10-13T15:50:38.984Z,100256.06
2022-10-13T15:53:06.801Z,100251.91
2022-10-13T15:55:34.487Z,100257.69
2022-10-13T15:58:02.462Z,100253.53
2022-10-13T16:00:29.805Z,100240.72
2022-10-13T16:02:57.422Z,100253.97
2022-10-13T16:05:24.740Z,100246.06
2022-10-13T16:07:52.044Z,100236.34
2022-10-13T16:10:19.636Z,100247.72
2022-10-13T16:12:49.645Z,100244.41
2022-10-13T16:15:18.010Z,100247.69
2022-10-13T16:17:46.480Z,100245.81
2022-10-13T16:20:14.014Z,100251.56
2022-10-13T16:22:41.336Z,100251.34
2022-10-13T16:25:09.607Z,100249.28
2022-10-13T16:27:40.432Z,100243.84
2022-10-13T16:30:11.233Z,100248.00
2022-10-13T16:32:39.473Z,100250.44
2022-10-13T16:35:07.401Z,100254.56
2022-10-13T16:37:35.012Z,100252.88
2022-10-13T16:40:02.344Z,100256.91
2022-10-13T16:42:29.732Z,100257.94
2022-10-13T16:44:57.629Z,100257.28
2022-10-13T16:47:27.569Z,100263.06
2022-10-13T16:49:54.925Z,100261.97
2022-10-13T16:52:24.372Z,100256.59
2022-10-13T16:54:52.534Z,100261.00
2022-10-13T16:57:20.163Z,100267.09
2022-10-13T16:59:48.542Z,100260.25
2022-10-13T17:02:15.908Z,100264.22
2022-10-13T17:04:43.241Z,100268.66
2022-10-13T17:07:10.815Z,100272.75
2022-10-13T17:09:38.353Z,100271.00
2022-10-13T17:12:05.873Z,100270.59
2022-10-13T17:14:33.497Z,100265.66
2022-10-13T17:17:00.822Z,100268.19
2022-10-13T17:19:28.157Z,100269.72
2022-10-13T17:21:55.789Z,100270.63
2022-10-13T17:24:23.504Z,100268.06
2022-10-13T17:26:51.120Z,100271.37
2022-10-13T17:29:18.716Z,100280.03
2022-10-13T17:31:46.096Z,100275.97
2022-10-13T17:34:13.409Z,100270.22
2022-10-13T17:36:41.003Z,100272.47
2022-10-13T17:39:09.319Z,100271.37
2022-10-13T17:41:38.720Z,100274.50
2022-10-13T17:44:06.310Z,100273.28
2022-10-13T17:46:38.723Z,100275.97
2022-10-13T17:49:07.951Z,100266.03
2022-10-13T17:51:35.303Z,100271.63
2022-10-13T17:54:02.636Z,100272.06
2022-10-13T17:56:30.285Z,100267.16
2022-10-13T17:58:57.843Z,100269.22
2022-10-13T18:01:27.086Z,100265.62
2022-10-13T18:03:58.835Z,100266.75
2022-10-13T18:06:36.709Z,100274.03
2022-10-13T18:09:06.796Z,100262.03
2022-10-13T18:11:35.234Z,100265.94
2022-10-13T18:14:02.571Z,100264.28
2022-10-13T18:16:30.190Z,100267.19
2022-10-13T18:18:57.495Z,100272.81
2022-10-13T18:21:27.735Z,100263.03
2022-10-13T18:23:56.099Z,100267.78
2022-10-13T18:26:23.704Z,100262.50
2022-10-13T18:28:51.351Z,100266.94
2022-10-13T18:31:27.707Z,100272.19
2022-10-13T18:33:59.239Z,100260.53
2022-10-13T18:36:38.443Z,100260.31
2022-10-13T18:39:12.333Z,100258.66
2022-10-13T18:41:40.894Z,100260.31
2022-10-13T18:44:08.348Z,100268.31
2022-10-13T18:46:36.498Z,100257.44
2022-10-13T18:49:08.254Z,100263.03
2022-10-13T18:51:37.736Z,100263.53
2022-10-13T18:54:05.515Z,100263.44
2022-10-13T18:56:33.322Z,100254.88
2022-10-13T18:59:01.436Z,100255.53
2022-10-13T19:01:30.841Z,100258.19
2022-10-13T19:03:58.242Z,100252.75
2022-10-13T19:06:27.054Z,100258.44
2022-10-13T19:09:00.563Z,100256.53
2022-10-13T19:11:28.306Z,100245.66
2022-10-13T19:13:56.055Z,100255.34
2022-10-13T19:16:24.189Z,100253.38
2022-10-13T19:18:51.872Z,100251.84
2022-10-13T19:21:19.764Z,100252.97
2022-10-13T19:23:47.193Z,100258.53
2022-10-13T19:26:17.899Z,100252.81
